Time;durP1;ratioP1;P1;durP2;ratioP2;P2;SDS_P1;SDS_P2;PMS_P1;PMS_P2;Temp;Humidity;BMP_temperature;BMP_pressure;BME280_temperature;BME280_humidity;BME280_pressure;Samples;Min_cycle;Max_cycle;Signal;HPM_P1;HPM_P2
2022/09/22 05:16:04;;;;;;;;;7.00;7.00;;;;;19.62;48.95;101840.47;5055768;28;45490;-75
2022/09/22 05:18:29;;;;;;;;;4.50;4.50;;;;;19.80;49.21;101844.56;5032941;28;45489;-74
2022/09/22 05:20:54;;;;;;;;;8.50;6.25;;;;;20.07;49.46;101857.78;5037350;28;45869;-77
2022/09/22 05:23:20;;;;;;;;;6.00;6.00;;;;;20.38;49.53;101852.72;5041018;28;45368;-76
2022/09/22 05:25:45;;;;;;;;;6.00;6.00;;;;;20.76;48.79;101855.22;5038584;28;45931;-77
2022/09/22 05:28:10;;;;;;;;;6.00;6.00;;;;;21.12;48.59;101858.63;5043023;28;54483;-75
2022/09/22 05:30:36;;;;;;;;;8.33;8.33;;;;;21.46;48.12;101861.25;5041750;28;45530;-76
2022/09/22 05:33:01;;;;;;;;;6.00;6.00;;;;;21.80;47.75;101862.13;5041523;28;45597;-76
2022/09/22 05:35:26;;;;;;;;;5.00;5.00;;;;;22.06;46.69;101856.34;5042824;28;49124;-75
2022/09/22 05:37:52;;;;;;;;;6.00;6.00;;;;;22.37;46.63;101857.25;5030833;28;45356;-76
2022/09/22 05:40:18;;;;;;;;;6.67;6.67;;;;;22.62;45.50;101851.56;5041667;28;45414;-75
2022/09/22 05:42:48;;;;;;;;;8.00;6.67;;;;;22.86;45.16;101858.50;5037007;28;45517;-75
2022/09/22 05:45:15;;;;;;;;;6.00;6.00;;;;;23.08;44.97;101861.97;5035762;28;45381;-75
2022/09/22 05:47:41;;;;;;;;;4.33;4.33;;;;;23.26;44.43;101859.47;5043235;28;45603;-75
2022/09/22 05:50:08;;;;;;;;;6.00;6.00;;;;;23.43;44.33;101861.50;5032711;28;45540;-75
2022/09/22 05:52:34;;;;;;;;;6.00;6.00;;;;;23.55;44.13;101862.25;5031757;28;45416;-75
2022/09/22 05:54:59;;;;;;;;;4.00;4.00;;;;;23.73;43.83;101864.25;5037340;28;45832;-75
2022/09/22 05:57:26;;;;;;;;;5.00;5.00;;;;;23.85;43.14;101873.09;5038166;28;45402;-75
2022/09/22 05:59:52;;;;;;;;;4.67;4.67;;;;;23.98;43.58;101878.22;5033512;28;45518;-75
2022/09/22 06:02:17;;;;;;;;;7.00;7.00;;;;;24.06;43.02;101883.78;5050190;28;45499;-75
2022/09/22 06:04:43;;;;;;;;;4.67;4.67;;;;;24.16;42.70;101880.22;5046613;28;46053;-74
2022/09/22 06:07:08;;;;;;;;;6.67;6.00;;;;;24.25;42.83;101876.66;5046804;28;45436;-75
2022/09/22 06:09:34;;;;;;;;;7.00;5.33;;;;;24.31;42.71;101875.19;5043244;28;45684;-75
2022/09/22 06:11:59;;;;;;;;;7.67;5.67;;;;;24.38;42.32;101870.91;5041984;28;45522;-75
2022/09/22 06:14:25;;;;;;;;;7.00;7.00;;;;;24.43;42.54;101878.59;5053739;28;45586;-78
2022/09/22 06:16:50;;;;;;;;;6.33;6.00;;;;;24.50;42.28;101889.72;5050310;27;46741;-80
2022/09/22 06:19:15;;;;;;;;;12.33;9.67;;;;;24.57;42.00;101880.00;5046787;28;45526;-79
2022/09/22 06:21:41;;;;;;;;;8.33;7.00;;;;;24.63;42.13;101878.50;5050514;27;60606;-78
2022/09/22 06:24:06;;;;;;;;;7.67;6.67;;;;;24.71;42.20;101878.63;5047250;28;47585;-77
2022/09/22 06:26:31;;;;;;;;;9.00;6.33;;;;;24.78;41.72;101885.19;5031697;28;53925;-77
2022/09/22 06:28:57;;;;;;;;;9.33;7.00;;;;;24.80;41.83;101882.34;5035116;28;54075;-73
2022/09/22 06:31:23;;;;;;;;;6.67;6.33;;;;;24.80;41.72;101871.47;5035952;28;45586;-72
2022/09/22 06:33:49;;;;;;;;;6.33;6.33;;;;;24.93;41.66;101884.72;5019466;28;46287;-72
2022/09/22 06:36:22;;;;;;;;;8.00;8.00;;;;;24.93;41.73;101874.72;5032287;28;45475;-72
2022/09/22 06:38:47;;;;;;;;;5.67;5.67;;;;;25.04;41.42;101878.22;5033672;28;46059;-76
2022/09/22 06:41:12;;;;;;;;;6.67;5.67;;;;;25.08;41.07;101877.78;5035466;28;45795;-77
2022/09/22 06:43:38;;;;;;;;;8.00;8.00;;;;;25.12;41.13;101873.75;5034511;28;45986;-76
2022/09/22 06:46:03;;;;;;;;;7.33;5.33;;;;;25.08;41.20;101856.06;5033035;28;49644;-76
2022/09/22 06:48:30;;;;;;;;;5.33;5.33;;;;;25.03;41.33;101839.38;5042422;28;45678;-76
2022/09/22 06:50:56;;;;;;;;;8.67;8.00;;;;;24.95;40.84;101822.97;5032653;28;45565;-76
2022/09/22 06:53:23;;;;;;;;;7.33;6.00;;;;;25.10;40.62;101847.75;5033824;28;47399;-76
2022/09/22 06:55:48;;;;;;;;;9.33;6.00;;;;;24.98;40.65;101823.50;5037510;28;47120;-76
2022/09/22 06:58:14;;;;;;;;;6.00;6.00;;;;;25.09;40.79;101848.78;5035188;28;45554;-75
2022/09/22 07:00:42;;;;;;;;;7.33;5.67;;;;;25.00;40.64;101826.94;5032738;28;45528;-76
2022/09/22 07:03:21;;;;;;;;;6.00;6.00;;;;;25.25;40.62;101875.25;5033510;28;46384;-76
2022/09/22 07:06:01;;;;;;;;;5.00;5.00;;;;;25.28;40.26;101872.22;5033295;28;45542;-75
2022/09/22 07:08:29;;;;;;;;;5.00;5.00;;;;;25.12;40.56;101846.59;5034523;28;45694;-75
2022/09/22 07:11:01;;;;;;;;;8.00;6.33;;;;;25.35;40.12;101878.78;5035693;28;45567;-75
2022/09/22 07:13:28;;;;;;;;;6.33;5.67;;;;;25.09;40.47;101830.59;5031456;28;46193;-74
2022/09/22 07:16:00;;;;;;;;;7.00;5.00;;;;;25.02;40.29;101810.50;5034506;28;46759;-75
2022/09/22 07:18:26;;;;;;;;;7.00;7.00;;;;;25.31;39.78;101857.47;5035889;28;45679;-76
2022/09/22 07:20:51;;;;;;;;;7.00;5.00;;;;;25.17;39.94;101837.97;5032402;28;46263;-76
2022/09/22 07:23:17;;;;;;;;;6.00;6.00;;;;;25.35;40.21;101858.88;5035944;28;45521;-72
2022/09/22 07:25:49;;;;;;;;;6.00;6.00;;;;;25.44;40.17;101876.13;5034915;28;45547;-72
2022/09/22 07:28:14;;;;;;;;;5.67;5.67;;;;;25.44;40.03;101868.84;5033129;28;45522;-72
2022/09/22 07:30:40;;;;;;;;;6.00;6.00;;;;;25.45;39.66;101873.25;5038865;28;45694;-72
2022/09/22 07:33:06;;;;;;;;;6.00;6.00;;;;;25.46;39.93;101872.22;5031387;28;47388;-72
2022/09/22 07:35:34;;;;;;;;;6.00;6.00;;;;;25.47;40.06;101870.38;5031115;28;45506;-72
2022/09/22 07:38:02;;;;;;;;;6.33;6.33;;;;;25.47;39.81;101868.50;5034788;28;45922;-72
2022/09/22 07:40:27;;;;;;;;;8.00;8.00;;;;;25.47;39.53;101868.50;5032891;28;46090;-72
2022/09/22 07:42:53;;;;;;;;;6.33;5.67;;;;;25.47;39.32;101868.50;5036510;28;45825;-72
2022/09/22 07:45:18;;;;;;;;;5.00;5.00;;;;;25.46;39.68;101865.97;5039019;28;47346;-73
2022/09/22 07:50:29;;;;;;;;;5.00;4.00;;;;;25.51;39.65;101872.63;5030697;28;46079;-72
2022/09/22 07:52:55;;;;;;;;;7.00;6.00;;;;;25.51;39.57;101871.78;5033763;28;46125;-76
2022/09/22 07:55:23;;;;;;;;;6.00;6.00;;;;;25.53;39.56;101870.63;5013976;28;45627;-76
2022/09/22 07:57:53;;;;;;;;;6.00;6.00;;;;;25.53;39.21;101867.03;5032148;28;45840;-76
2022/09/22 08:00:19;;;;;;;;;6.00;4.00;;;;;25.50;39.42;101862.78;5034353;28;45472;-75
2022/09/22 08:02:51;;;;;;;;;5.33;5.33;;;;;25.49;39.69;101860.19;5032630;28;46094;-75
2022/09/22 08:05:16;;;;;;;;;5.33;5.00;;;;;25.48;39.49;101869.38;5037449;28;45501;-78
2022/09/22 08:07:42;;;;;;;;;6.33;6.33;;;;;25.48;39.46;101867.53;5033680;28;45703;-77
2022/09/22 08:10:09;;;;;;;;;4.33;4.00;;;;;25.47;39.46;101867.66;5033004;28;45618;-78
2022/09/22 08:12:35;;;;;;;;;4.33;4.33;;;;;25.47;39.41;101868.50;5035363;28;46140;-75
2022/09/22 08:15:01;;;;;;;;;5.00;5.00;;;;;25.49;39.15;101873.78;5031438;28;45642;-76
2022/09/22 08:17:26;;;;;;;;;6.67;6.33;;;;;25.45;39.38;101856.06;5032897;28;45317;-76
2022/09/22 08:19:51;;;;;;;;;5.67;5.33;;;;;25.52;39.31;101874.34;5031829;28;45667;-76
2022/09/22 08:22:17;;;;;;;;;7.00;5.67;;;;;25.53;39.61;101869.75;5038348;28;45243;-77
2022/09/22 08:24:44;;;;;;;;;5.67;5.67;;;;;25.53;39.63;101872.47;5055782;28;45364;-75
2022/09/22 08:27:09;;;;;;;;;4.33;4.00;;;;;25.55;39.17;101872.31;5027889;28;46286;-72
2022/09/22 08:29:35;;;;;;;;;6.67;6.00;;;;;25.46;39.35;101849.66;5044260;28;46199;-72
2022/09/22 08:32:01;;;;;;;;;5.67;5.67;;;;;25.55;39.39;101861.44;5036160;28;47655;-73
2022/09/22 08:34:26;;;;;;;;;4.00;4.00;;;;;25.54;39.03;101863.31;5049154;28;45467;-73
2022/09/22 08:36:52;;;;;;;;;4.00;4.00;;;;;25.54;39.17;101866.03;5055484;28;45432;-72
2022/09/22 08:39:17;;;;;;;;;6.00;5.00;;;;;25.49;39.10;101860.19;5052454;28;45446;-72
2022/09/22 08:42:14;;;;;;;;;6.00;6.00;;;;;25.55;39.00;101866.88;5049811;28;45450;-72
2022/09/22 08:45:20;;;;;;;;;4.33;4.33;;;;;25.55;39.34;101862.34;5044668;28;45336;-79
2022/09/22 08:53:42;;;;;;;;;7.00;5.67;;;;;25.59;39.14;101858.28;5034911;28;45736;-77
2022/09/22 08:56:24;;;;;;;;;4.33;4.33;;;;;25.61;38.82;101855.41;5054947;28;45430;-77
2022/09/22 08:59:12;;;;;;;;;4.00;4.00;;;;;25.64;38.99;101853.25;5045962;28;45430;-78
2022/09/22 09:01:59;;;;;;;;;5.00;4.00;;;;;25.66;38.87;101858.53;5038149;28;45545;-74
2022/09/22 09:04:41;;;;;;;;;4.00;4.00;;;;;25.69;39.14;101862.78;5044425;28;45614;-73
2022/09/22 09:07:42;;;;;;;;;5.67;5.33;;;;;25.67;38.58;101860.25;5044949;28;46105;-71
2022/09/22 09:10:26;;;;;;;;;4.00;4.00;;;;;25.72;38.73;101866.06;5041097;28;46137;-70
2022/09/22 09:12:56;;;;;;;;;4.67;4.67;;;;;25.74;38.89;101868.59;5051989;28;45412;-71
2022/09/22 09:15:46;;;;;;;;;5.33;5.33;;;;;25.74;38.65;101857.72;5041109;28;45539;-74
2022/09/22 09:18:21;;;;;;;;;4.00;4.00;;;;;25.76;38.10;101866.59;5038620;28;45510;-72
2022/09/22 09:20:50;;;;;;;;;4.33;4.33;;;;;25.75;38.60;101862.19;5039782;28;45316;-73
2022/09/22 09:23:25;;;;;;;;;3.33;3.33;;;;;25.75;38.32;101863.03;5034670;28;45574;-73
2022/09/22 09:25:54;;;;;;;;;4.33;4.33;;;;;25.75;38.70;101859.47;5029185;28;46176;-72
2022/09/22 09:28:21;;;;;;;;;4.00;4.00;;;;;25.73;38.81;101858.75;5035743;28;45467;-74
2022/09/22 09:30:52;;;;;;;;;5.00;5.00;;;;;25.74;38.38;101858.59;5037941;28;45425;-74
2022/09/22 09:33:55;;;;;;;;;6.33;5.00;;;;;25.74;38.68;101874.91;5050132;28;45869;-74
2022/09/22 09:36:25;;;;;;;;;3.33;3.33;;;;;25.75;38.71;101859.47;5040636;28;46394;-74
2022/09/22 09:38:55;;;;;;;;;4.67;4.67;;;;;25.71;38.49;101861.63;5050392;28;45486;-74
2022/09/22 09:41:32;;;;;;;;;3.00;3.00;;;;;25.75;38.36;101863.03;5035271;28;45530;-74
2022/09/22 09:44:03;;;;;;;;;5.67;4.00;;;;;25.67;38.96;101846.66;5050302;28;45409;-74
2022/09/22 09:46:46;;;;;;;;;5.67;5.67;;;;;25.77;38.25;101854.72;5038186;28;47476;-75
2022/09/22 09:49:16;;;;;;;;;6.33;4.00;;;;;25.77;38.34;101846.56;5037711;28;45338;-73
2022/09/22 09:51:46;;;;;;;;;4.00;4.00;;;;;25.81;38.79;101850.66;5036574;28;45519;-72
2022/09/22 09:54:14;;;;;;;;;4.00;4.00;;;;;25.83;38.25;101853.25;5043120;28;45514;-73
2022/09/22 09:57:05;;;;;;;;;5.00;5.00;;;;;25.86;38.52;101847.47;5030613;28;47375;-70
2022/09/22 10:02:21;;;;;;;;;3.00;3.00;;;;;25.89;39.30;101831.72;5050290;28;45673;-74
2022/09/22 10:05:25;;;;;;;;;3.33;3.33;;;;;25.92;39.21;101835.97;5060007;28;45410;-74
2022/09/22 10:07:57;;;;;;;;;3.67;2.00;;;;;25.88;39.08;101816.38;5056953;28;47405;-74
2022/09/22 10:10:28;;;;;;;;;3.00;3.00;;;;;25.98;39.13;101823.59;5057891;28;45341;-74
2022/09/22 10:13:22;;;;;;;;;2.00;2.00;;;;;26.02;39.48;101820.41;5044411;28;45599;-74
2022/09/22 10:16:04;;;;;;;;;1.67;0.67;;;;;26.09;38.60;101820.63;5046269;28;45412;-71
2022/09/22 10:18:32;;;;;;;;;3.00;3.00;;;;;26.14;38.82;101809.25;5045048;28;47212;-70
2022/09/22 10:21:14;;;;;;;;;3.00;3.00;;;;;26.17;38.47;101811.66;5050132;28;45721;-70
2022/09/22 10:23:41;;;;;;;;;3.00;3.00;;;;;26.19;38.61;101812.34;5048383;28;45431;-70
2022/09/22 10:26:18;;;;;;;;;3.67;3.67;;;;;26.21;38.28;101807.59;5053462;28;45336;-70
2022/09/22 10:28:46;;;;;;;;;3.33;3.33;;;;;26.25;38.33;101808.16;5052339;28;45384;-71
2022/09/22 10:31:24;;;;;;;;;3.00;3.00;;;;;26.25;38.18;101797.28;5044102;28;45469;-72
2022/09/22 10:33:58;;;;;;;;;5.00;5.00;;;;;26.31;37.86;101800.22;5054608;28;45402;-72
2022/09/22 10:36:25;;;;;;;;;5.00;4.67;;;;;26.34;38.66;101804.47;5056356;28;45464;-74
2022/09/22 10:38:53;;;;;;;;;3.00;3.00;;;;;26.38;38.25;101799.53;5046747;28;46231;-74
2022/09/22 10:41:26;;;;;;;;;5.00;5.00;;;;;26.41;38.26;101802.78;5041528;28;45516;-72
2022/09/22 10:44:02;;;;;;;;;5.67;3.67;;;;;26.42;38.48;101796.34;5056610;28;45371;-72
2022/09/22 10:46:49;;;;;;;;;3.00;3.00;;;;;26.50;38.58;101797.41;5041854;28;45578;-72
2022/09/22 10:49:22;;;;;;;;;3.00;3.00;;;;;26.55;38.16;101795.91;5054700;28;46371;-72
2022/09/22 10:52:08;;;;;;;;;3.67;3.67;;;;;26.60;38.43;101780.94;5046918;28;45542;-73
2022/09/22 10:55:03;;;;;;;;;3.00;3.00;;;;;26.58;38.56;101773.78;5042931;28;45461;-73
2022/09/22 10:57:46;;;;;;;;;2.00;2.00;;;;;26.73;38.51;101775.03;4966617;28;45941;-71
2022/09/22 11:00:18;;;;;;;;;2.00;2.00;;;;;26.77;37.98;101777.25;4974353;28;46109;-70
2022/09/22 11:02:52;;;;;;;;;3.67;3.67;;;;;26.82;38.58;101763.97;4971910;28;45828;-70
2022/09/22 11:14:51;;;;;;;;;4.00;4.00;;;;;27.06;38.08;101746.00;4968639;28;45556;-72
2022/09/22 11:17:25;;;;;;;;;4.67;3.00;;;;;27.08;37.17;101752.16;4971942;28;45486;-71
2022/09/22 11:20:02;;;;;;;;;7.67;4.67;;;;;27.12;36.75;101749.06;4970573;28;45543;-75
2022/09/22 11:22:41;;;;;;;;;4.33;3.00;;;;;27.10;37.33;101752.81;4966746;28;45522;-75
2022/09/22 11:25:25;;;;;;;;;4.00;4.00;;;;;27.05;37.23;101747.03;4972162;28;45498;-75
2022/09/22 11:28:19;;;;;;;;;5.00;3.00;;;;;27.08;37.36;101752.16;4972082;28;45672;-75
2022/09/22 11:30:49;;;;;;;;;5.67;4.33;;;;;27.06;37.21;101753.34;4969804;28;45469;-75
2022/09/22 11:34:09;;;;;;;;;3.67;3.67;;;;;27.02;37.34;101744.63;4970912;28;45910;-74
2022/09/22 11:37:24;;;;;;;;;3.00;3.00;;;;;27.01;36.85;101753.00;4983863;28;45561;-74
2022/09/22 11:40:14;;;;;;;;;5.00;3.33;;;;;26.98;37.40;101747.88;4992477;28;45472;-74
2022/09/22 11:43:21;;;;;;;;;4.00;4.00;;;;;26.95;36.95;101743.63;4998643;28;45995;-75
2022/09/22 11:46:07;;;;;;;;;4.67;4.67;;;;;26.93;36.83;101735.59;4990684;28;47084;-74
2022/09/22 11:48:54;;;;;;;;;3.67;3.67;;;;;26.92;37.01;101728.44;4993951;28;45462;-72
2022/09/22 11:51:39;;;;;;;;;3.67;3.67;;;;;26.91;36.76;101729.47;4992911;28;45767;-71
2022/09/22 11:54:24;;;;;;;;;5.00;3.67;;;;;26.89;37.07;101719.75;4989965;28;45668;-72
2022/09/22 11:56:54;;;;;;;;;4.33;4.33;;;;;26.89;36.96;101719.75;4983390;28;47670;-71
2022/09/22 11:59:43;;;;;;;;;3.67;3.67;;;;;26.90;37.10;101719.59;4977191;28;45514;-72
2022/09/22 12:02:19;;;;;;;;;4.00;2.67;;;;;26.92;37.34;101717.53;4991170;28;45587;-71
2022/09/22 12:04:51;;;;;;;;;4.00;4.00;;;;;26.93;37.36;101721.13;4992540;28;45805;-71
2022/09/22 12:07:25;;;;;;;;;3.33;3.33;;;;;26.94;37.21;101712.78;4982625;28;45436;-71
2022/09/22 12:10:02;;;;;;;;;3.00;3.00;;;;;26.90;37.12;101697.78;4999468;28;45613;-72
2022/09/22 12:12:31;;;;;;;;;3.00;3.00;;;;;26.98;37.27;101709.75;5053862;28;45395;-72
2022/09/22 12:15:23;;;;;;;;;3.67;3.67;;;;;27.00;37.48;101705.81;5052168;28;46374;-70
2022/09/22 12:17:58;;;;;;;;;4.00;2.67;;;;;27.01;36.70;101699.34;5054883;28;46028;-71
2022/09/22 12:20:53;;;;;;;;;3.33;3.33;;;;;27.02;37.38;101700.22;5055794;28;45446;-71
2022/09/22 12:23:31;;;;;;;;;5.00;4.00;;;;;27.05;37.32;101699.88;5050754;28;45603;-72
2022/09/22 12:26:02;;;;;;;;;2.00;2.00;;;;;27.04;37.13;101693.56;5055109;28;45470;-73
2022/09/22 12:28:30;;;;;;;;;3.00;3.00;;;;;27.13;37.31;101682.69;5059296;28;46010;-73
2022/09/22 12:30:58;;;;;;;;;4.00;3.00;;;;;27.18;37.75;101685.75;5054899;28;45372;-74
2022/09/22 12:33:26;;;;;;;;;3.00;2.00;;;;;27.26;37.12;101680.25;5053325;28;45262;-73
2022/09/22 12:35:54;;;;;;;;;3.00;3.00;;;;;27.32;37.31;101676.00;5055557;28;45460;-73
2022/09/22 12:38:21;;;;;;;;;2.67;2.67;;;;;27.41;37.94;101680.44;5054515;28;45373;-74
2022/09/22 12:40:57;;;;;;;;;6.00;2.67;;;;;27.46;37.68;101672.59;5055168;28;45418;-73
2022/09/22 12:43:23;;;;;;;;;2.00;2.00;;;;;27.54;37.89;101671.72;5055448;28;45417;-74
2022/09/22 12:45:50;;;;;;;;;2.33;2.33;;;;;27.61;37.37;101677.38;5055067;28;45354;-75
2022/09/22 12:48:21;;;;;;;;;2.33;2.33;;;;;27.67;37.92;101667.66;5043673;28;46115;-75
2022/09/22 12:50:48;;;;;;;;;2.33;2.33;;;;;27.73;37.48;101665.06;5052589;28;45639;-71
2022/09/22 12:53:19;;;;;;;;;3.33;3.00;;;;;27.81;37.95;101672.38;5055390;28;45744;-71
2022/09/22 12:55:45;;;;;;;;;4.00;3.00;;;;;27.88;37.43;101675.25;5053875;28;45376;-71
2022/09/22 12:58:19;;;;;;;;;5.33;4.00;;;;;27.94;37.47;101658.19;5055027;28;45364;-71
2022/09/22 13:00:46;;;;;;;;;1.33;1.33;;;;;28.01;38.16;101661.91;5054835;28;45471;-72
2022/09/22 13:03:23;;;;;;;;;5.00;3.00;;;;;28.07;37.92;101659.50;5059689;28;45515;-72
2022/09/22 13:05:56;;;;;;;;;4.67;1.33;;;;;28.07;38.25;101645.84;5041423;28;45462;-72
2022/09/22 13:08:44;;;;;;;;;2.00;2.00;;;;;28.19;38.17;101657.22;5054627;28;46497;-71
2022/09/22 13:11:10;;;;;;;;;3.00;3.00;;;;;28.21;37.75;101656.03;5054903;28;45550;-72
2022/09/22 13:13:41;;;;;;;;;2.00;2.00;;;;;28.30;38.08;101658.72;5040348;28;45408;-73
2022/09/22 13:16:12;;;;;;;;;1.67;1.67;;;;;28.33;38.05;101659.22;5051342;28;45610;-72
2022/09/22 13:18:58;;;;;;;;;3.00;3.00;;;;;28.36;36.86;101655.28;5053836;28;45717;-73
2022/09/22 13:21:26;;;;;;;;;2.00;2.00;;;;;28.35;36.88;101651.69;5060800;28;45373;-72
2022/09/22 13:23:57;;;;;;;;;3.00;3.00;;;;;28.35;36.71;101654.44;5054152;28;45870;-72
2022/09/22 13:26:28;;;;;;;;;3.00;2.00;;;;;28.28;36.10;101648.84;5050372;28;45424;-72
2022/09/22 13:29:02;;;;;;;;;3.00;3.00;;;;;28.22;36.41;101645.94;5053731;28;46255;-73
2022/09/22 13:31:35;;;;;;;;;2.00;2.00;;;;;28.14;36.26;101644.97;5053405;28;45487;-72
2022/09/22 13:34:26;;;;;;;;;4.00;3.33;;;;;28.10;36.30;101646.34;5053487;28;45672;-73
2022/09/22 13:37:00;;;;;;;;;2.33;2.33;;;;;28.04;37.13;101638.88;5056918;28;45452;-72
2022/09/22 13:39:30;;;;;;;;;2.00;2.00;;;;;28.00;36.67;101635.63;5057887;28;45407;-72
2022/09/22 13:42:10;;;;;;;;;2.67;1.67;;;;;27.96;37.36;101631.56;5057890;28;45416;-74
2022/09/22 13:44:39;;;;;;;;;2.00;2.00;;;;;27.98;36.86;101631.38;5053550;28;45581;-74
2022/09/22 13:47:12;;;;;;;;;1.00;1.00;;;;;27.97;37.00;101627.81;5040367;28;45467;-73
2022/09/22 13:49:46;;;;;;;;;2.33;2.33;;;;;27.95;37.35;101620.84;5055912;28;46873;-71
2022/09/22 13:52:17;;;;;;;;;4.00;2.00;;;;;28.00;37.45;101623.88;5055420;28;45691;-72
2022/09/22 13:54:47;;;;;;;;;2.67;2.00;;;;;28.03;37.61;101628.97;5056873;28;45420;-72
2022/09/22 13:57:22;;;;;;;;;3.00;3.00;;;;;28.06;37.96;101617.72;5057345;28;45411;-72
2022/09/22 13:59:50;;;;;;;;;2.00;2.00;;;;;28.11;38.38;101611.69;5056966;28;45379;-73
2022/09/22 14:02:22;;;;;;;;;2.33;2.33;;;;;28.14;38.06;101609.47;5058087;28;45432;-71
2022/09/22 14:04:50;;;;;;;;;3.00;1.33;;;;;28.20;38.41;101607.91;5060932;28;45508;-75
2022/09/22 14:07:17;;;;;;;;;1.00;1.00;;;;;28.21;38.19;101601.44;5050043;28;45480;-75
2022/09/22 14:09:43;;;;;;;;;1.67;1.67;;;;;28.27;38.89;101603.47;5057781;28;45470;-74
2022/09/22 14:12:10;;;;;;;;;2.00;1.67;;;;;28.33;38.94;101596.44;5050393;28;45658;-72
2022/09/22 14:14:38;;;;;;;;;2.00;2.00;;;;;28.33;38.62;101593.72;5054024;28;45482;-71
2022/09/22 14:17:16;;;;;;;;;2.00;2.00;;;;;28.39;39.16;101592.13;5056561;28;45466;-72
2022/09/22 14:20:07;;;;;;;;;1.00;1.00;;;;;28.43;38.71;101588.00;5056165;28;45549;-76
2022/09/22 14:22:40;;;;;;;;;2.00;2.00;;;;;28.46;39.02;101584.06;5045587;28;45381;-74
2022/09/22 14:25:14;;;;;;;;;0.00;0.00;;;;;28.50;39.11;101590.84;5057144;28;45348;-73
2022/09/22 14:27:54;;;;;;;;;2.67;2.67;;;;;28.50;38.93;101582.66;5056887;28;45368;-74
2022/09/22 14:30:25;;;;;;;;;1.00;1.00;;;;;28.54;39.25;101584.84;5057417;28;46228;-74
2022/09/22 14:33:02;;;;;;;;;3.00;1.00;;;;;28.52;39.47;101576.00;5056779;28;45397;-72
2022/09/22 14:35:35;;;;;;;;;2.00;2.00;;;;;28.57;39.63;101588.25;5057856;28;45316;-75
2022/09/22 14:38:03;;;;;;;;;2.67;2.67;;;;;28.56;39.76;101587.38;5057025;28;45357;-75
2022/09/22 14:40:29;;;;;;;;;2.00;2.00;;;;;28.56;37.95;101583.81;5038973;28;47173;-75
2022/09/22 14:42:54;;;;;;;;;2.00;2.00;;;;;28.53;37.08;101585.88;5047894;28;45428;-75
2022/09/22 14:45:20;;;;;;;;;1.33;1.33;;;;;28.51;36.81;101582.50;5051286;28;45452;-75
2022/09/22 14:47:47;;;;;;;;;2.33;2.33;;;;;28.48;36.23;101573.81;5056311;28;45554;-76
2022/09/22 14:50:25;;;;;;;;;1.33;1.33;;;;;28.43;36.58;101577.09;5054446;28;45734;-76
2022/09/22 14:53:08;;;;;;;;;1.67;1.00;;;;;28.39;35.70;101586.66;5056547;28;45488;-75
2022/09/22 14:55:37;;;;;;;;;1.00;1.00;;;;;28.35;36.20;101583.44;5056602;28;45885;-75
2022/09/22 14:58:21;;;;;;;;;2.00;2.00;;;;;28.28;36.38;101577.88;5035225;28;45487;-73
2022/09/22 15:04:01;;;;;;;;;1.00;1.00;;;;;28.25;36.13;101575.47;4972506;28;45370;-72
2022/09/22 15:06:32;;;;;;;;;1.00;1.00;;;;;28.24;36.34;101579.25;4979691;28;46796;-73
2022/09/22 15:09:03;;;;;;;;;1.00;1.00;;;;;28.23;37.06;101574.81;4973727;28;45641;-73
2022/09/22 15:11:48;;;;;;;;;1.00;1.00;;;;;28.20;37.20;101580.59;4981619;28;45408;-74
2022/09/22 15:14:45;;;;;;;;;0.00;0.00;;;;;28.19;36.65;101572.63;4969131;28;45830;-74
2022/09/22 15:21:05;;;;;;;;;1.67;1.67;;;;;28.14;36.65;101578.59;4896418;28;45393;-74
2022/09/22 15:23:43;;;;;;;;;2.00;2.00;;;;;28.10;35.77;101575.41;4896376;28;47466;-74
2022/09/22 15:26:21;;;;;;;;;1.33;1.33;;;;;28.06;36.13;101575.91;4897064;28;45566;-74
2022/09/22 15:28:47;;;;;;;;;1.67;1.00;;;;;28.02;35.73;101575.44;4901137;28;46596;-74
2022/09/22 15:31:15;;;;;;;;;3.00;1.67;;;;;27.94;35.84;101570.88;4887066;29;45247;-75
2022/09/22 15:33:41;;;;;;;;;4.67;2.67;;;;;27.95;36.45;101574.47;4894000;28;46995;-78
2022/09/22 15:36:12;;;;;;;;;4.67;4.33;;;;;27.81;36.39;101551.50;4900485;28;45519;-76
2022/09/22 15:38:38;;;;;;;;;1.67;1.67;;;;;27.86;36.87;101573.63;4898625;28;45719;-77
2022/09/22 15:41:04;;;;;;;;;3.00;3.00;;;;;27.72;36.46;101554.25;4928309;28;45521;-74
2022/09/22 15:43:29;;;;;;;;;3.00;2.33;;;;;27.69;37.00;101562.81;4948527;28;45989;-73
2022/09/22 15:46:00;;;;;;;;;3.00;3.00;;;;;27.70;37.22;101558.19;4946249;28;45762;-72
2022/09/22 15:48:28;;;;;;;;;4.67;4.67;;;;;27.65;36.68;101558.75;4946491;28;45545;-73
2022/09/22 15:50:55;;;;;;;;;8.00;3.67;;;;;27.53;36.60;101541.03;4949407;28;45757;-72
2022/09/22 15:53:22;;;;;;;;;3.00;2.00;;;;;27.57;37.37;101561.47;4944306;28;46112;-72
2022/09/22 15:55:48;;;;;;;;;3.67;2.33;;;;;27.53;36.67;101549.19;5001223;28;47670;-72
2022/09/22 15:58:17;;;;;;;;;1.00;1.00;;;;;27.45;37.18;101545.50;5048584;28;45516;-72
2022/09/22 16:00:43;;;;;;;;;1.67;1.67;;;;;27.45;36.70;101545.50;5046310;28;45418;-73
2022/09/22 16:03:14;;;;;;;;;3.67;2.00;;;;;27.41;37.54;101540.56;5049243;28;45722;-73
2022/09/22 16:05:41;;;;;;;;;5.00;2.00;;;;;27.38;37.14;101536.31;5047646;28;45605;-72
2022/09/22 16:08:11;;;;;;;;;1.00;1.00;;;;;27.36;36.62;101541.97;5048637;28;45496;-72
2022/09/22 16:10:37;;;;;;;;;2.67;2.33;;;;;27.32;36.78;101534.28;5044595;28;45496;-73
2022/09/22 16:13:02;;;;;;;;;2.00;2.00;;;;;27.32;36.88;101532.44;5047732;28;46201;-73
2022/09/22 16:15:29;;;;;;;;;1.67;1.00;;;;;27.30;37.19;101531.72;5043622;28;45529;-72
2022/09/22 16:17:54;;;;;;;;;3.00;3.00;;;;;27.27;37.35;101523.06;5049222;28;45660;-73
2022/09/22 16:20:19;;;;;;;;;1.00;1.00;;;;;27.23;37.30;101520.69;5040070;28;51965;-72
2022/09/22 16:22:45;;;;;;;;;3.67;1.67;;;;;27.20;37.05;101517.47;5052000;28;46242;-72
2022/09/22 16:25:11;;;;;;;;;1.00;1.00;;;;;27.20;36.97;101512.88;5046548;28;45349;-73
2022/09/22 16:27:37;;;;;;;;;6.00;4.00;;;;;27.19;37.25;101518.50;5047301;28;45359;-73
2022/09/22 16:30:03;;;;;;;;;6.67;3.33;;;;;27.15;36.66;101520.72;5047663;28;45474;-73
2022/09/22 16:32:31;;;;;;;;;2.67;1.67;;;;;27.16;37.68;101521.56;5041878;28;45838;-75
2022/09/22 16:34:56;;;;;;;;;8.00;7.33;;;;;27.07;35.15;101507.97;5040250;28;46763;-73
2022/09/22 16:37:22;;;;;;;;;17.33;12.00;;;;;27.07;33.91;101521.59;5039881;28;45479;-75
2022/09/22 16:39:47;;;;;;;;;3.33;3.00;;;;;27.04;35.75;101513.75;5039968;28;45575;-74
2022/09/22 16:42:14;;;;;;;;;6.00;4.00;;;;;27.02;36.65;101520.41;5042213;28;46108;-73
2022/09/22 16:44:41;;;;;;;;;5.33;5.00;;;;;27.01;37.06;101519.53;5041814;28;45440;-73
2022/09/22 16:47:06;;;;;;;;;4.00;4.00;;;;;27.01;37.37;101519.53;5019528;28;45462;-79
2022/09/22 16:49:32;;;;;;;;;5.67;4.33;;;;;27.01;36.83;101518.72;5041872;28;45596;-77
2022/09/22 16:51:58;;;;;;;;;5.67;5.67;;;;;26.99;36.91;101516.16;5039651;28;45491;-77
2022/09/22 16:54:23;;;;;;;;;6.67;5.33;;;;;27.06;36.84;101514.44;5036753;28;45396;-76
2022/09/22 16:56:50;;;;;;;;;5.33;4.33;;;;;27.08;37.31;101512.41;5034668;28;45557;-73
2022/09/22 16:59:17;;;;;;;;;3.33;3.33;;;;;27.10;36.89;101512.22;5040183;28;45777;-73
2022/09/22 17:01:43;;;;;;;;;7.67;3.00;;;;;27.09;37.23;101508.63;5040260;28;45605;-73
2022/09/22 17:04:11;;;;;;;;;6.00;4.33;;;;;27.12;36.60;101503.84;5038755;28;45527;-73
2022/09/22 17:06:37;;;;;;;;;6.00;3.33;;;;;27.07;36.84;101507.97;5040713;28;45819;-73
2022/09/22 17:09:03;;;;;;;;;8.00;4.33;;;;;27.11;37.22;101513.91;5045295;28;45562;-73
2022/09/22 17:11:33;;;;;;;;;6.33;3.00;;;;;27.14;37.41;101513.56;5043809;28;45519;-73
2022/09/22 17:14:05;;;;;;;;;4.33;4.33;;;;;27.14;37.32;101516.28;5043812;28;45634;-73
2022/09/22 17:16:35;;;;;;;;;2.00;2.00;;;;;27.14;37.61;101516.28;5032463;28;45479;-73
2022/09/22 17:19:09;;;;;;;;;6.00;4.00;;;;;27.16;36.88;101507.94;5036079;28;45772;-73
2022/09/22 17:21:37;;;;;;;;;5.67;3.00;;;;;27.13;37.29;101508.31;5037680;28;46238;-73
2022/09/22 17:24:04;;;;;;;;;5.67;2.67;;;;;27.15;36.96;101512.56;5039674;28;45352;-73
2022/09/22 17:26:33;;;;;;;;;6.67;4.00;;;;;27.16;37.59;101510.66;5038798;28;45500;-73
2022/09/22 17:28:59;;;;;;;;;3.67;2.00;;;;;27.15;37.49;101511.69;5036129;28;45366;-74